sensor_id;sensor_type;location;lat;lon;timestamp;P1;durP1;ratioP1;P2;durP2;ratioP2
43696;SDS011;29301;47.620;19.560;2023-03-23T00:01:47;1.00;;;0.70;;
43696;SDS011;29301;47.620;19.560;2023-03-23T00:04:15;0.93;;;0.70;;
43696;SDS011;29301;47.620;19.560;2023-03-23T00:06:41;0.90;;;0.60;;
43696;SDS011;29301;47.620;19.560;2023-03-23T00:09:10;0.90;;;0.60;;
43696;SDS011;29301;47.620;19.560;2023-03-23T00:11:40;0.90;;;0.70;;
43696;SDS011;29301;47.620;19.560;2023-03-23T00:14:07;1.00;;;0.70;;
43696;SDS011;29301;47.620;19.560;2023-03-23T00:16:38;1.10;;;0.70;;
43696;SDS011;29301;47.620;19.560;2023-03-23T00:19:07;1.00;;;0.70;;
43696;SDS011;29301;47.620;19.560;2023-03-23T00:21:35;1.10;;;0.70;;
43696;SDS011;29301;47.620;19.560;2023-03-23T00:24:05;0.90;;;0.70;;
43696;SDS011;29301;47.620;19.560;2023-03-23T00:26:41;0.90;;;0.70;;
43696;SDS011;29301;47.620;19.560;2023-03-23T00:29:18;0.90;;;0.70;;
43696;SDS011;29301;47.620;19.560;2023-03-23T00:31:46;1.08;;;0.70;;
43696;SDS011;29301;47.620;19.560;2023-03-23T00:34:16;0.90;;;0.70;;
43696;SDS011;29301;47.620;19.560;2023-03-23T00:36:51;1.10;;;0.70;;
43696;SDS011;29301;47.620;19.560;2023-03-23T00:39:22;1.10;;;0.73;;
43696;SDS011;29301;47.620;19.560;2023-03-23T00:41:49;1.00;;;0.70;;
43696;SDS011;29301;47.620;19.560;2023-03-23T00:44:15;1.10;;;0.70;;
43696;SDS011;29301;47.620;19.560;2023-03-23T00:46:47;1.10;;;0.70;;
43696;SDS011;29301;47.620;19.560;2023-03-23T00:49:15;1.10;;;0.77;;
43696;SDS011;29301;47.620;19.560;2023-03-23T00:51:43;1.00;;;0.70;;
43696;SDS011;29301;47.620;19.560;2023-03-23T00:54:09;1.10;;;0.70;;
43696;SDS011;29301;47.620;19.560;2023-03-23T00:56:35;1.10;;;0.70;;
43696;SDS011;29301;47.620;19.560;2023-03-23T00:59:02;1.10;;;0.70;;
43696;SDS011;29301;47.620;19.560;2023-03-23T01:01:28;0.93;;;0.63;;
43696;SDS011;29301;47.620;19.560;2023-03-23T01:03:54;0.90;;;0.70;;
43696;SDS011;29301;47.620;19.560;2023-03-23T01:06:26;0.90;;;0.70;;
43696;SDS011;29301;47.620;19.560;2023-03-23T01:08:53;1.10;;;0.70;;
43696;SDS011;29301;47.620;19.560;2023-03-23T01:11:19;1.00;;;0.70;;
43696;SDS011;29301;47.620;19.560;2023-03-23T01:13:45;1.05;;;0.70;;
43696;SDS011;29301;47.620;19.560;2023-03-23T01:16:11;1.00;;;0.60;;
43696;SDS011;29301;47.620;19.560;2023-03-23T01:18:37;0.85;;;0.70;;
43696;SDS011;29301;47.620;19.560;2023-03-23T01:21:08;1.10;;;0.70;;
43696;SDS011;29301;47.620;19.560;2023-03-23T01:23:36;1.02;;;0.70;;
43696;SDS011;29301;47.620;19.560;2023-03-23T01:26:03;1.10;;;0.70;;
43696;SDS011;29301;47.620;19.560;2023-03-23T01:28:30;1.00;;;0.70;;
43696;SDS011;29301;47.620;19.560;2023-03-23T01:31:00;1.00;;;0.70;;
43696;SDS011;29301;47.620;19.560;2023-03-23T01:33:40;1.10;;;0.70;;
43696;SDS011;29301;47.620;19.560;2023-03-23T01:36:16;1.10;;;0.70;;
43696;SDS011;29301;47.620;19.560;2023-03-23T01:38:45;1.05;;;0.70;;
43696;SDS011;29301;47.620;19.560;2023-03-23T01:41:12;1.00;;;0.70;;
43696;SDS011;29301;47.620;19.560;2023-03-23T01:43:55;1.10;;;0.70;;
43696;SDS011;29301;47.620;19.560;2023-03-23T01:46:20;1.10;;;0.70;;
43696;SDS011;29301;47.620;19.560;2023-03-23T01:48:47;1.00;;;0.70;;
43696;SDS011;29301;47.620;19.560;2023-03-23T01:51:15;1.05;;;0.70;;
43696;SDS011;29301;47.620;19.560;2023-03-23T01:53:48;1.10;;;0.77;;
43696;SDS011;29301;47.620;19.560;2023-03-23T01:56:20;1.10;;;0.70;;
43696;SDS011;29301;47.620;19.560;2023-03-23T01:58:50;1.10;;;0.80;;
43696;SDS011;29301;47.620;19.560;2023-03-23T02:01:17;1.10;;;0.70;;
43696;SDS011;29301;47.620;19.560;2023-03-23T02:03:46;1.10;;;0.70;;
43696;SDS011;29301;47.620;19.560;2023-03-23T02:06:13;1.13;;;0.73;;
43696;SDS011;29301;47.620;19.560;2023-03-23T02:08:40;1.00;;;0.70;;
43696;SDS011;29301;47.620;19.560;2023-03-23T02:11:15;1.10;;;0.70;;
43696;SDS011;29301;47.620;19.560;2023-03-23T02:13:43;1.02;;;0.70;;
43696;SDS011;29301;47.620;19.560;2023-03-23T02:18:57;1.10;;;0.80;;
43696;SDS011;29301;47.620;19.560;2023-03-23T02:24:16;1.10;;;0.70;;
43696;SDS011;29301;47.620;19.560;2023-03-23T02:27:04;1.00;;;0.70;;
43696;SDS011;29301;47.620;19.560;2023-03-23T02:29:58;1.10;;;0.70;;
43696;SDS011;29301;47.620;19.560;2023-03-23T02:35:44;1.15;;;0.70;;
43696;SDS011;29301;47.620;19.560;2023-03-23T02:38:21;1.20;;;0.80;;
43696;SDS011;29301;47.620;19.560;2023-03-23T02:40:55;1.20;;;0.75;;
43696;SDS011;29301;47.620;19.560;2023-03-23T02:43:23;1.10;;;0.70;;
43696;SDS011;29301;47.620;19.560;2023-03-23T02:45:50;1.10;;;0.70;;
43696;SDS011;29301;47.620;19.560;2023-03-23T02:48:20;1.20;;;0.80;;
43696;SDS011;29301;47.620;19.560;2023-03-23T02:50:49;1.10;;;0.70;;
43696;SDS011;29301;47.620;19.560;2023-03-23T02:53:18;1.10;;;0.70;;
43696;SDS011;29301;47.620;19.560;2023-03-23T02:55:48;1.13;;;0.80;;
43696;SDS011;29301;47.620;19.560;2023-03-23T02:58:18;1.10;;;0.70;;
43696;SDS011;29301;47.620;19.560;2023-03-23T03:00:44;1.20;;;0.80;;
43696;SDS011;29301;47.620;19.560;2023-03-23T03:03:15;1.00;;;0.70;;
43696;SDS011;29301;47.620;19.560;2023-03-23T03:05:49;1.20;;;0.80;;
43696;SDS011;29301;47.620;19.560;2023-03-23T03:08:37;1.20;;;0.80;;
43696;SDS011;29301;47.620;19.560;2023-03-23T03:11:14;1.13;;;0.80;;
43696;SDS011;29301;47.620;19.560;2023-03-23T03:21:42;1.20;;;0.80;;
43696;SDS011;29301;47.620;19.560;2023-03-23T03:24:10;1.20;;;0.80;;
43696;SDS011;29301;47.620;19.560;2023-03-23T03:26:41;1.10;;;0.80;;
43696;SDS011;29301;47.620;19.560;2023-03-23T03:29:20;1.20;;;0.82;;
43696;SDS011;29301;47.620;19.560;2023-03-23T03:31:48;1.20;;;0.80;;
43696;SDS011;29301;47.620;19.560;2023-03-23T03:34:20;1.13;;;0.80;;
43696;SDS011;29301;47.620;19.560;2023-03-23T03:36:48;1.20;;;0.80;;
43696;SDS011;29301;47.620;19.560;2023-03-23T03:39:16;1.20;;;0.80;;
43696;SDS011;29301;47.620;19.560;2023-03-23T03:41:44;1.20;;;0.80;;
43696;SDS011;29301;47.620;19.560;2023-03-23T03:44:10;1.20;;;0.80;;
43696;SDS011;29301;47.620;19.560;2023-03-23T03:46:36;1.20;;;0.80;;
43696;SDS011;29301;47.620;19.560;2023-03-23T03:49:03;1.20;;;0.80;;
43696;SDS011;29301;47.620;19.560;2023-03-23T03:51:32;1.20;;;0.80;;
43696;SDS011;29301;47.620;19.560;2023-03-23T03:54:00;1.10;;;0.80;;
43696;SDS011;29301;47.620;19.560;2023-03-23T03:56:26;1.20;;;0.80;;
43696;SDS011;29301;47.620;19.560;2023-03-23T03:58:52;1.20;;;0.80;;
43696;SDS011;29301;47.620;19.560;2023-03-23T04:01:18;1.10;;;0.80;;
43696;SDS011;29301;47.620;19.560;2023-03-23T04:03:49;1.20;;;0.80;;
43696;SDS011;29301;47.620;19.560;2023-03-23T04:06:16;1.10;;;0.70;;
43696;SDS011;29301;47.620;19.560;2023-03-23T04:08:42;1.20;;;0.80;;
43696;SDS011;29301;47.620;19.560;2023-03-23T04:11:09;1.10;;;0.80;;
43696;SDS011;29301;47.620;19.560;2023-03-23T04:13:37;1.20;;;0.80;;
43696;SDS011;29301;47.620;19.560;2023-03-23T04:16:03;1.20;;;0.80;;
43696;SDS011;29301;47.620;19.560;2023-03-23T04:18:30;1.10;;;0.70;;
43696;SDS011;29301;47.620;19.560;2023-03-23T04:20:57;1.20;;;0.77;;
43696;SDS011;29301;47.620;19.560;2023-03-23T04:23:24;1.20;;;0.70;;
43696;SDS011;29301;47.620;19.560;2023-03-23T04:25:51;1.10;;;0.80;;
43696;SDS011;29301;47.620;19.560;2023-03-23T04:28:21;1.20;;;0.80;;
43696;SDS011;29301;47.620;19.560;2023-03-23T04:30:48;1.20;;;0.80;;
43696;SDS011;29301;47.620;19.560;2023-03-23T04:33:18;1.20;;;0.80;;
43696;SDS011;29301;47.620;19.560;2023-03-23T04:35:45;1.20;;;0.80;;
43696;SDS011;29301;47.620;19.560;2023-03-23T04:38:13;1.20;;;0.80;;
43696;SDS011;29301;47.620;19.560;2023-03-23T04:40:41;1.20;;;0.80;;
43696;SDS011;29301;47.620;19.560;2023-03-23T04:43:08;1.20;;;0.80;;
43696;SDS011;29301;47.620;19.560;2023-03-23T04:45:34;1.17;;;0.80;;
43696;SDS011;29301;47.620;19.560;2023-03-23T04:48:02;1.20;;;0.80;;
43696;SDS011;29301;47.620;19.560;2023-03-23T04:50:30;1.20;;;0.80;;
43696;SDS011;29301;47.620;19.560;2023-03-23T04:52:58;1.20;;;0.80;;
43696;SDS011;29301;47.620;19.560;2023-03-23T04:55:29;1.20;;;0.80;;
43696;SDS011;29301;47.620;19.560;2023-03-23T04:58:05;1.20;;;0.80;;
43696;SDS011;29301;47.620;19.560;2023-03-23T05:00:35;1.20;;;0.70;;
43696;SDS011;29301;47.620;19.560;2023-03-23T05:03:00;1.10;;;0.80;;
43696;SDS011;29301;47.620;19.560;2023-03-23T05:05:27;1.20;;;0.80;;
43696;SDS011;29301;47.620;19.560;2023-03-23T05:07:55;1.10;;;0.70;;
43696;SDS011;29301;47.620;19.560;2023-03-23T05:10:22;1.20;;;0.80;;
43696;SDS011;29301;47.620;19.560;2023-03-23T05:12:48;1.20;;;0.80;;
43696;SDS011;29301;47.620;19.560;2023-03-23T05:15:14;1.20;;;0.80;;
43696;SDS011;29301;47.620;19.560;2023-03-23T05:17:41;1.10;;;0.80;;
43696;SDS011;29301;47.620;19.560;2023-03-23T05:20:13;1.20;;;0.80;;
43696;SDS011;29301;47.620;19.560;2023-03-23T05:22:43;1.20;;;0.80;;
43696;SDS011;29301;47.620;19.560;2023-03-23T05:25:15;1.20;;;0.80;;
43696;SDS011;29301;47.620;19.560;2023-03-23T05:27:45;1.10;;;0.80;;
43696;SDS011;29301;47.620;19.560;2023-03-23T05:30:17;1.20;;;0.80;;
43696;SDS011;29301;47.620;19.560;2023-03-23T05:32:43;1.20;;;0.80;;
43696;SDS011;29301;47.620;19.560;2023-03-23T05:35:10;1.10;;;0.80;;
43696;SDS011;29301;47.620;19.560;2023-03-23T05:37:37;1.20;;;0.80;;
43696;SDS011;29301;47.620;19.560;2023-03-23T05:40:03;1.20;;;0.80;;
43696;SDS011;29301;47.620;19.560;2023-03-23T05:42:31;1.20;;;0.80;;
43696;SDS011;29301;47.620;19.560;2023-03-23T05:44:58;1.20;;;0.80;;
43696;SDS011;29301;47.620;19.560;2023-03-23T05:47:24;1.05;;;0.70;;
43696;SDS011;29301;47.620;19.560;2023-03-23T05:49:50;1.20;;;0.80;;
43696;SDS011;29301;47.620;19.560;2023-03-23T05:52:16;1.20;;;0.80;;
43696;SDS011;29301;47.620;19.560;2023-03-23T05:54:42;1.20;;;0.80;;
43696;SDS011;29301;47.620;19.560;2023-03-23T05:57:09;1.20;;;0.80;;
43696;SDS011;29301;47.620;19.560;2023-03-23T05:59:36;1.20;;;0.80;;
43696;SDS011;29301;47.620;19.560;2023-03-23T06:02:02;1.20;;;0.80;;
43696;SDS011;29301;47.620;19.560;2023-03-23T06:04:28;1.10;;;0.70;;
43696;SDS011;29301;47.620;19.560;2023-03-23T06:06:54;1.13;;;0.80;;
43696;SDS011;29301;47.620;19.560;2023-03-23T06:09:19;1.20;;;0.80;;
43696;SDS011;29301;47.620;19.560;2023-03-23T06:11:46;1.20;;;0.80;;
43696;SDS011;29301;47.620;19.560;2023-03-23T06:14:12;1.20;;;0.80;;
43696;SDS011;29301;47.620;19.560;2023-03-23T06:16:38;1.10;;;0.70;;
43696;SDS011;29301;47.620;19.560;2023-03-23T06:19:04;1.20;;;0.80;;
43696;SDS011;29301;47.620;19.560;2023-03-23T06:21:32;1.20;;;0.73;;
43696;SDS011;29301;47.620;19.560;2023-03-23T06:23:59;1.20;;;0.77;;
43696;SDS011;29301;47.620;19.560;2023-03-23T06:26:30;1.20;;;0.80;;
43696;SDS011;29301;47.620;19.560;2023-03-23T06:28:58;1.20;;;0.80;;
43696;SDS011;29301;47.620;19.560;2023-03-23T06:31:24;1.20;;;0.80;;
43696;SDS011;29301;47.620;19.560;2023-03-23T06:33:51;1.10;;;0.73;;
43696;SDS011;29301;47.620;19.560;2023-03-23T06:36:17;1.10;;;0.70;;
43696;SDS011;29301;47.620;19.560;2023-03-23T06:38:43;1.05;;;0.70;;
43696;SDS011;29301;47.620;19.560;2023-03-23T06:41:10;1.15;;;0.80;;
43696;SDS011;29301;47.620;19.560;2023-03-23T06:43:36;1.10;;;0.73;;
43696;SDS011;29301;47.620;19.560;2023-03-23T06:46:04;1.20;;;0.77;;
43696;SDS011;29301;47.620;19.560;2023-03-23T06:48:33;1.02;;;0.70;;
43696;SDS011;29301;47.620;19.560;2023-03-23T06:50:59;1.00;;;0.70;;
43696;SDS011;29301;47.620;19.560;2023-03-23T06:53:24;1.20;;;0.70;;
43696;SDS011;29301;47.620;19.560;2023-03-23T06:55:50;1.10;;;0.70;;
43696;SDS011;29301;47.620;19.560;2023-03-23T06:58:16;1.10;;;0.70;;
43696;SDS011;29301;47.620;19.560;2023-03-23T07:00:42;0.80;;;0.60;;
43696;SDS011;29301;47.620;19.560;2023-03-23T07:03:08;1.00;;;0.70;;
43696;SDS011;29301;47.620;19.560;2023-03-23T07:05:34;1.00;;;0.70;;
43696;SDS011;29301;47.620;19.560;2023-03-23T07:08:00;0.90;;;0.68;;
43696;SDS011;29301;47.620;19.560;2023-03-23T07:10:27;1.02;;;0.70;;
43696;SDS011;29301;47.620;19.560;2023-03-23T07:12:53;0.90;;;0.60;;
43696;SDS011;29301;47.620;19.560;2023-03-23T07:15:19;0.90;;;0.70;;
43696;SDS011;29301;47.620;19.560;2023-03-23T07:17:44;0.85;;;0.60;;
43696;SDS011;29301;47.620;19.560;2023-03-23T07:20:12;0.80;;;0.60;;
43696;SDS011;29301;47.620;19.560;2023-03-23T07:22:38;0.80;;;0.60;;
43696;SDS011;29301;47.620;19.560;2023-03-23T07:25:04;0.70;;;0.60;;
43696;SDS011;29301;47.620;19.560;2023-03-23T07:30:13;0.80;;;0.60;;
43696;SDS011;29301;47.620;19.560;2023-03-23T07:32:42;0.80;;;0.55;;
43696;SDS011;29301;47.620;19.560;2023-03-23T07:35:08;0.70;;;0.60;;
43696;SDS011;29301;47.620;19.560;2023-03-23T07:37:35;0.70;;;0.50;;
43696;SDS011;29301;47.620;19.560;2023-03-23T07:40:04;0.70;;;0.50;;
43696;SDS011;29301;47.620;19.560;2023-03-23T07:42:39;0.70;;;0.60;;
43696;SDS011;29301;47.620;19.560;2023-03-23T07:45:06;0.70;;;0.50;;
43696;SDS011;29301;47.620;19.560;2023-03-23T07:47:32;0.70;;;0.60;;
43696;SDS011;29301;47.620;19.560;2023-03-23T07:49:58;0.70;;;0.50;;
43696;SDS011;29301;47.620;19.560;2023-03-23T07:52:23;0.70;;;0.50;;
43696;SDS011;29301;47.620;19.560;2023-03-23T07:54:49;0.70;;;0.50;;
43696;SDS011;29301;47.620;19.560;2023-03-23T07:57:15;0.80;;;0.52;;
43696;SDS011;29301;47.620;19.560;2023-03-23T07:59:40;0.80;;;0.50;;
43696;SDS011;29301;47.620;19.560;2023-03-23T08:02:08;0.70;;;0.50;;
43696;SDS011;29301;47.620;19.560;2023-03-23T08:04:35;0.70;;;0.50;;
43696;SDS011;29301;47.620;19.560;2023-03-23T08:07:02;0.70;;;0.50;;
43696;SDS011;29301;47.620;19.560;2023-03-23T08:09:29;0.70;;;0.50;;
43696;SDS011;29301;47.620;19.560;2023-03-23T08:11:56;0.70;;;0.50;;
43696;SDS011;29301;47.620;19.560;2023-03-23T08:14:22;0.70;;;0.50;;
43696;SDS011;29301;47.620;19.560;2023-03-23T08:16:53;0.70;;;0.43;;
43696;SDS011;29301;47.620;19.560;2023-03-23T08:19:21;0.70;;;0.50;;
43696;SDS011;29301;47.620;19.560;2023-03-23T08:21:47;0.80;;;0.50;;
43696;SDS011;29301;47.620;19.560;2023-03-23T08:24:13;0.60;;;0.40;;
43696;SDS011;29301;47.620;19.560;2023-03-23T08:26:39;0.70;;;0.40;;
43696;SDS011;29301;47.620;19.560;2023-03-23T08:29:05;0.60;;;0.40;;
43696;SDS011;29301;47.620;19.560;2023-03-23T08:31:31;0.60;;;0.40;;
43696;SDS011;29301;47.620;19.560;2023-03-23T08:33:59;0.60;;;0.40;;
43696;SDS011;29301;47.620;19.560;2023-03-23T08:36:26;0.60;;;0.40;;
43696;SDS011;29301;47.620;19.560;2023-03-23T08:38:52;0.50;;;0.40;;
43696;SDS011;29301;47.620;19.560;2023-03-23T08:41:18;0.50;;;0.40;;
43696;SDS011;29301;47.620;19.560;2023-03-23T08:43:44;0.50;;;0.40;;
43696;SDS011;29301;47.620;19.560;2023-03-23T08:46:11;0.45;;;0.40;;
43696;SDS011;29301;47.620;19.560;2023-03-23T08:48:37;0.50;;;0.40;;
43696;SDS011;29301;47.620;19.560;2023-03-23T08:51:04;0.40;;;0.40;;
43696;SDS011;29301;47.620;19.560;2023-03-23T08:53:31;0.40;;;0.30;;
43696;SDS011;29301;47.620;19.560;2023-03-23T08:56:09;0.47;;;0.40;;
43696;SDS011;29301;47.620;19.560;2023-03-23T08:58:39;0.40;;;0.30;;
43696;SDS011;29301;47.620;19.560;2023-03-23T09:01:06;0.50;;;0.40;;
43696;SDS011;29301;47.620;19.560;2023-03-23T09:03:33;0.40;;;0.30;;
43696;SDS011;29301;47.620;19.560;2023-03-23T09:06:03;0.40;;;0.30;;
43696;SDS011;29301;47.620;19.560;2023-03-23T09:08:31;0.40;;;0.30;;
43696;SDS011;29301;47.620;19.560;2023-03-23T09:11:00;0.30;;;0.30;;
43696;SDS011;29301;47.620;19.560;2023-03-23T09:13:28;0.40;;;0.30;;
43696;SDS011;29301;47.620;19.560;2023-03-23T09:15:54;0.50;;;0.32;;
43696;SDS011;29301;47.620;19.560;2023-03-23T09:18:20;0.40;;;0.30;;
43696;SDS011;29301;47.620;19.560;2023-03-23T09:20:46;0.40;;;0.30;;
43696;SDS011;29301;47.620;19.560;2023-03-23T09:23:15;0.40;;;0.30;;
43696;SDS011;29301;47.620;19.560;2023-03-23T09:25:41;0.40;;;0.30;;
43696;SDS011;29301;47.620;19.560;2023-03-23T09:28:07;0.40;;;0.30;;
43696;SDS011;29301;47.620;19.560;2023-03-23T09:30:33;0.30;;;0.30;;
43696;SDS011;29301;47.620;19.560;2023-03-23T09:33:01;0.40;;;0.30;;
43696;SDS011;29301;47.620;19.560;2023-03-23T09:35:29;0.30;;;0.30;;
43696;SDS011;29301;47.620;19.560;2023-03-23T09:37:56;0.32;;;0.30;;
43696;SDS011;29301;47.620;19.560;2023-03-23T09:40:47;0.30;;;0.20;;
43696;SDS011;29301;47.620;19.560;2023-03-23T09:53:50;0.30;;;0.20;;
43696;SDS011;29301;47.620;19.560;2023-03-23T09:56:20;0.38;;;0.30;;
43696;SDS011;29301;47.620;19.560;2023-03-23T09:58:55;0.40;;;0.30;;
43696;SDS011;29301;47.620;19.560;2023-03-23T10:01:47;0.50;;;0.38;;
43696;SDS011;29301;47.620;19.560;2023-03-23T10:06:55;0.40;;;0.30;;
43696;SDS011;29301;47.620;19.560;2023-03-23T10:09:33;0.40;;;0.30;;
43696;SDS011;29301;47.620;19.560;2023-03-23T10:17:35;0.30;;;0.30;;
43696;SDS011;29301;47.620;19.560;2023-03-23T10:20:16;0.40;;;0.30;;
43696;SDS011;29301;47.620;19.560;2023-03-23T10:22:51;0.30;;;0.30;;
43696;SDS011;29301;47.620;19.560;2023-03-23T10:25:41;0.30;;;0.20;;
43696;SDS011;29301;47.620;19.560;2023-03-23T10:30:42;0.40;;;0.30;;
43696;SDS011;29301;47.620;19.560;2023-03-23T10:36:05;0.30;;;0.30;;
43696;SDS011;29301;47.620;19.560;2023-03-23T10:38:33;0.30;;;0.30;;
43696;SDS011;29301;47.620;19.560;2023-03-23T10:41:12;0.40;;;0.30;;
43696;SDS011;29301;47.620;19.560;2023-03-23T10:43:43;0.30;;;0.30;;
43696;SDS011;29301;47.620;19.560;2023-03-23T10:48:43;0.30;;;0.20;;
43696;SDS011;29301;47.620;19.560;2023-03-23T10:51:10;0.40;;;0.30;;
43696;SDS011;29301;47.620;19.560;2023-03-23T10:53:45;0.30;;;0.30;;
43696;SDS011;29301;47.620;19.560;2023-03-23T10:56:26;0.30;;;0.30;;
43696;SDS011;29301;47.620;19.560;2023-03-23T10:58:54;0.30;;;0.30;;
43696;SDS011;29301;47.620;19.560;2023-03-23T11:01:28;0.30;;;0.30;;
43696;SDS011;29301;47.620;19.560;2023-03-23T11:03:56;0.30;;;0.30;;
43696;SDS011;29301;47.620;19.560;2023-03-23T11:06:23;0.30;;;0.30;;
43696;SDS011;29301;47.620;19.560;2023-03-23T11:08:56;0.40;;;0.30;;
43696;SDS011;29301;47.620;19.560;2023-03-23T11:11:30;0.30;;;0.20;;
43696;SDS011;29301;47.620;19.560;2023-03-23T11:13:58;0.30;;;0.28;;
43696;SDS011;29301;47.620;19.560;2023-03-23T11:16:41;0.30;;;0.30;;
43696;SDS011;29301;47.620;19.560;2023-03-23T11:19:20;0.40;;;0.30;;
43696;SDS011;29301;47.620;19.560;2023-03-23T11:21:52;0.30;;;0.30;;
43696;SDS011;29301;47.620;19.560;2023-03-23T11:24:30;0.30;;;0.20;;
43696;SDS011;29301;47.620;19.560;2023-03-23T11:27:07;0.30;;;0.30;;
43696;SDS011;29301;47.620;19.560;2023-03-23T11:29:36;0.30;;;0.30;;
43696;SDS011;29301;47.620;19.560;2023-03-23T11:32:14;0.40;;;0.30;;
43696;SDS011;29301;47.620;19.560;2023-03-23T11:34:42;0.40;;;0.30;;
43696;SDS011;29301;47.620;19.560;2023-03-23T11:37:56;0.40;;;0.30;;
43696;SDS011;29301;47.620;19.560;2023-03-23T11:42:43;0.30;;;0.28;;
43696;SDS011;29301;47.620;19.560;2023-03-23T11:48:01;0.30;;;0.30;;
43696;SDS011;29301;47.620;19.560;2023-03-23T11:50:50;0.40;;;0.30;;
43696;SDS011;29301;47.620;19.560;2023-03-23T11:58:38;0.40;;;0.30;;
43696;SDS011;29301;47.620;19.560;2023-03-23T12:12:32;0.30;;;0.30;;
43696;SDS011;29301;47.620;19.560;2023-03-23T12:15:22;0.30;;;0.30;;
43696;SDS011;29301;47.620;19.560;2023-03-23T12:18:22;0.30;;;0.30;;
43696;SDS011;29301;47.620;19.560;2023-03-23T12:21:23;0.30;;;0.30;;
43696;SDS011;29301;47.620;19.560;2023-03-23T12:24:06;0.30;;;0.25;;
43696;SDS011;29301;47.620;19.560;2023-03-23T12:35:05;0.30;;;0.20;;
43696;SDS011;29301;47.620;19.560;2023-03-23T12:48:41;0.40;;;0.30;;
43696;SDS011;29301;47.620;19.560;2023-03-23T12:57:09;0.40;;;0.30;;
43696;SDS011;29301;47.620;19.560;2023-03-23T13:02:28;0.30;;;0.20;;
43696;SDS011;29301;47.620;19.560;2023-03-23T13:05:03;0.32;;;0.30;;
43696;SDS011;29301;47.620;19.560;2023-03-23T13:07:38;0.30;;;0.30;;
43696;SDS011;29301;47.620;19.560;2023-03-23T13:10:19;0.40;;;0.30;;
43696;SDS011;29301;47.620;19.560;2023-03-23T13:12:51;0.40;;;0.30;;
43696;SDS011;29301;47.620;19.560;2023-03-23T13:15:25;0.30;;;0.30;;
43696;SDS011;29301;47.620;19.560;2023-03-23T13:23:24;0.30;;;0.30;;
43696;SDS011;29301;47.620;19.560;2023-03-23T13:26:01;0.30;;;0.30;;
43696;SDS011;29301;47.620;19.560;2023-03-23T13:28:32;0.30;;;0.30;;
43696;SDS011;29301;47.620;19.560;2023-03-23T13:31:12;0.30;;;0.20;;
43696;SDS011;29301;47.620;19.560;2023-03-23T13:33:45;0.30;;;0.25;;
43696;SDS011;29301;47.620;19.560;2023-03-23T13:36:14;0.40;;;0.30;;
43696;SDS011;29301;47.620;19.560;2023-03-23T13:38:46;0.30;;;0.20;;
43696;SDS011;29301;47.620;19.560;2023-03-23T13:41:14;0.40;;;0.20;;
43696;SDS011;29301;47.620;19.560;2023-03-23T13:43:42;0.30;;;0.25;;
43696;SDS011;29301;47.620;19.560;2023-03-23T13:48:51;0.30;;;0.30;;
43696;SDS011;29301;47.620;19.560;2023-03-23T13:51:46;0.30;;;0.22;;
43696;SDS011;29301;47.620;19.560;2023-03-23T13:54:46;0.30;;;0.20;;
43696;SDS011;29301;47.620;19.560;2023-03-23T13:59:58;0.30;;;0.30;;
43696;SDS011;29301;47.620;19.560;2023-03-23T14:02:37;0.30;;;0.20;;
43696;SDS011;29301;47.620;19.560;2023-03-23T14:05:19;0.32;;;0.30;;
43696;SDS011;29301;47.620;19.560;2023-03-23T14:10:21;0.40;;;0.30;;
43696;SDS011;29301;47.620;19.560;2023-03-23T14:12:49;0.30;;;0.30;;
43696;SDS011;29301;47.620;19.560;2023-03-23T14:15:18;0.30;;;0.20;;
43696;SDS011;29301;47.620;19.560;2023-03-23T14:17:44;0.30;;;0.20;;
43696;SDS011;29301;47.620;19.560;2023-03-23T14:20:19;0.40;;;0.30;;
43696;SDS011;29301;47.620;19.560;2023-03-23T14:22:53;0.38;;;0.28;;
43696;SDS011;29301;47.620;19.560;2023-03-23T14:25:20;0.30;;;0.20;;
43696;SDS011;29301;47.620;19.560;2023-03-23T14:27:48;0.30;;;0.20;;
43696;SDS011;29301;47.620;19.560;2023-03-23T14:30:24;0.38;;;0.28;;
43696;SDS011;29301;47.620;19.560;2023-03-23T14:33:03;0.40;;;0.30;;
43696;SDS011;29301;47.620;19.560;2023-03-23T14:35:32;0.30;;;0.20;;
43696;SDS011;29301;47.620;19.560;2023-03-23T14:37:59;0.30;;;0.20;;
43696;SDS011;29301;47.620;19.560;2023-03-23T14:40:26;0.40;;;0.20;;
43696;SDS011;29301;47.620;19.560;2023-03-23T14:42:53;0.40;;;0.30;;
43696;SDS011;29301;47.620;19.560;2023-03-23T14:45:21;0.30;;;0.20;;
43696;SDS011;29301;47.620;19.560;2023-03-23T14:47:51;0.40;;;0.30;;
43696;SDS011;29301;47.620;19.560;2023-03-23T14:52:57;0.30;;;0.20;;
43696;SDS011;29301;47.620;19.560;2023-03-23T14:55:53;0.40;;;0.30;;
43696;SDS011;29301;47.620;19.560;2023-03-23T14:58:21;0.30;;;0.28;;
43696;SDS011;29301;47.620;19.560;2023-03-23T15:03:19;0.30;;;0.30;;
43696;SDS011;29301;47.620;19.560;2023-03-23T15:05:48;0.30;;;0.22;;
43696;SDS011;29301;47.620;19.560;2023-03-23T15:13:58;0.40;;;0.30;;
43696;SDS011;29301;47.620;19.560;2023-03-23T15:16:29;0.30;;;0.30;;
43696;SDS011;29301;47.620;19.560;2023-03-23T15:18:58;0.30;;;0.30;;
43696;SDS011;29301;47.620;19.560;2023-03-23T15:23:56;0.30;;;0.30;;
43696;SDS011;29301;47.620;19.560;2023-03-23T15:26:41;0.30;;;0.20;;
43696;SDS011;29301;47.620;19.560;2023-03-23T15:31:34;0.30;;;0.30;;
43696;SDS011;29301;47.620;19.560;2023-03-23T15:34:16;0.40;;;0.30;;
43696;SDS011;29301;47.620;19.560;2023-03-23T15:37:06;0.30;;;0.28;;
43696;SDS011;29301;47.620;19.560;2023-03-23T15:39:44;0.30;;;0.30;;
43696;SDS011;29301;47.620;19.560;2023-03-23T15:42:27;0.30;;;0.30;;
43696;SDS011;29301;47.620;19.560;2023-03-23T15:45:18;0.30;;;0.25;;
43696;SDS011;29301;47.620;19.560;2023-03-23T15:47:49;0.30;;;0.20;;
43696;SDS011;29301;47.620;19.560;2023-03-23T15:52:52;0.30;;;0.30;;
43696;SDS011;29301;47.620;19.560;2023-03-23T15:55:23;0.30;;;0.30;;
43696;SDS011;29301;47.620;19.560;2023-03-23T15:57:52;0.40;;;0.30;;
43696;SDS011;29301;47.620;19.560;2023-03-23T16:00:19;0.30;;;0.30;;
43696;SDS011;29301;47.620;19.560;2023-03-23T16:02:48;0.30;;;0.30;;
43696;SDS011;29301;47.620;19.560;2023-03-23T16:05:19;0.30;;;0.30;;
43696;SDS011;29301;47.620;19.560;2023-03-23T16:07:44;0.40;;;0.30;;
43696;SDS011;29301;47.620;19.560;2023-03-23T16:10:14;0.40;;;0.22;;
43696;SDS011;29301;47.620;19.560;2023-03-23T16:12:42;0.30;;;0.20;;
43696;SDS011;29301;47.620;19.560;2023-03-23T16:15:08;0.30;;;0.30;;
43696;SDS011;29301;47.620;19.560;2023-03-23T16:17:34;0.30;;;0.28;;
43696;SDS011;29301;47.620;19.560;2023-03-23T16:19:59;0.30;;;0.20;;
43696;SDS011;29301;47.620;19.560;2023-03-23T16:22:25;0.40;;;0.30;;
43696;SDS011;29301;47.620;19.560;2023-03-23T16:24:51;0.30;;;0.30;;
43696;SDS011;29301;47.620;19.560;2023-03-23T16:27:16;0.40;;;0.30;;
43696;SDS011;29301;47.620;19.560;2023-03-23T16:29:45;0.30;;;0.30;;
43696;SDS011;29301;47.620;19.560;2023-03-23T16:32:11;0.30;;;0.30;;
43696;SDS011;29301;47.620;19.560;2023-03-23T16:34:36;0.40;;;0.30;;
43696;SDS011;29301;47.620;19.560;2023-03-23T16:37:03;0.30;;;0.30;;
43696;SDS011;29301;47.620;19.560;2023-03-23T16:39:28;0.32;;;0.30;;
43696;SDS011;29301;47.620;19.560;2023-03-23T16:41:54;0.40;;;0.30;;
43696;SDS011;29301;47.620;19.560;2023-03-23T16:44:20;0.40;;;0.30;;
43696;SDS011;29301;47.620;19.560;2023-03-23T16:46:45;0.40;;;0.30;;
43696;SDS011;29301;47.620;19.560;2023-03-23T16:49:11;0.40;;;0.30;;
43696;SDS011;29301;47.620;19.560;2023-03-23T16:51:37;0.40;;;0.30;;
43696;SDS011;29301;47.620;19.560;2023-03-23T16:54:02;0.30;;;0.30;;
43696;SDS011;29301;47.620;19.560;2023-03-23T16:56:28;0.40;;;0.30;;
43696;SDS011;29301;47.620;19.560;2023-03-23T16:58:54;0.40;;;0.30;;